Time;durP1;ratioP1;P1;durP2;ratioP2;P2;SDS_P1;SDS_P2;PMS_P1;PMS_P2;Temp;Humidity;BMP_temperature;BMP_pressure;BME280_temperature;BME280_humidity;BME280_pressure;Samples;Min_cycle;Max_cycle;Signal;HPM_P1;HPM_P2
2022/07/23 00:00:29;;;;;;;5.88;5.38;;;;;;;23.71;52.84;98054.00;5024598;28;20065;-84
2022/07/23 00:03:04;;;;;;;5.78;5.28;;;;;;;23.64;52.65;98056.22;5025130;28;20053;-85
2022/07/23 00:05:31;;;;;;;5.90;5.40;;;;;;;23.63;52.51;98049.25;5006155;28;20045;-84
2022/07/23 00:08:01;;;;;;;5.75;5.25;;;;;;;23.58;52.18;98057.34;5022975;28;20037;-84
2022/07/23 00:10:27;;;;;;;6.35;5.75;;;;;;;23.42;52.68;98073.56;5020655;28;20038;-83
2022/07/23 00:12:54;;;;;;;8.60;7.90;;;;;;;22.98;53.80;98073.69;5028157;28;20097;-83
2022/07/23 00:15:21;;;;;;;8.35;7.55;;;;;;;22.83;54.38;98079.94;5023314;28;20049;-83
2022/07/23 00:17:47;;;;;;;6.63;6.03;;;;;;;22.80;55.38;98074.34;5025101;28;20041;-83
2022/07/23 00:20:14;;;;;;;7.22;6.57;;;;;;;22.75;55.20;98071.72;5036131;28;20049;-83
2022/07/23 00:22:52;;;;;;;6.50;5.80;;;;;;;22.84;55.15;98080.72;5040833;28;20091;-83
2022/07/23 00:25:21;;;;;;;5.53;5.03;;;;;;;22.75;55.92;98056.47;5024413;28;20512;-83
2022/07/23 00:27:59;;;;;;;4.63;4.22;;;;;;;22.94;55.85;98048.59;5024105;28;20038;-83
2022/07/23 00:30:29;;;;;;;4.72;4.32;;;;;;;23.11;56.04;98048.19;5022278;28;20413;-84
2022/07/23 00:33:00;;;;;;;4.20;3.80;;;;;;;23.09;55.21;98035.09;5023555;28;20069;-84
2022/07/23 00:35:31;;;;;;;4.57;4.18;;;;;;;23.21;55.61;98043.53;5025348;28;20456;-84
2022/07/23 00:37:59;;;;;;;5.00;4.22;;;;;;;23.23;56.02;98027.19;5026749;28;20046;-84
2022/07/23 00:40:27;;;;;;;4.63;4.30;;;;;;;23.33;55.11;98040.47;5024492;28;20042;-84
2022/07/23 00:42:54;;;;;;;4.50;4.10;;;;;;;23.25;54.46;98027.69;5037741;28;20107;-84
2022/07/23 00:45:21;;;;;;;4.43;4.03;;;;;;;23.15;54.32;98028.63;5018826;28;20076;-83
2022/07/23 00:47:48;;;;;;;6.35;5.40;;;;;;;22.97;54.56;98021.31;5027661;28;20559;-83
2022/07/23 00:50:16;;;;;;;4.95;4.50;;;;;;;23.02;55.01;98028.47;5028166;28;20424;-83
2022/07/23 00:52:44;;;;;;;5.10;4.60;;;;;;;22.99;55.74;98013.78;5026341;28;20060;-83
2022/07/23 00:55:12;;;;;;;4.30;3.90;;;;;;;23.08;55.95;98017.41;5024275;28;20457;-83
2022/07/23 00:57:41;;;;;;;5.75;5.25;;;;;;;23.00;54.68;98015.38;5022810;28;20046;-83
2022/07/23 01:00:13;;;;;;;5.35;4.95;;;;;;;22.87;55.38;98005.34;5024023;28;20049;-83
2022/07/23 01:02:41;;;;;;;6.05;5.55;;;;;;;22.78;55.64;98004.31;5021397;28;20099;-83
2022/07/23 01:05:09;;;;;;;5.32;4.85;;;;;;;22.62;56.31;97999.09;5026167;28;20087;-83
2022/07/23 01:07:37;;;;;;;4.70;4.30;;;;;;;22.71;56.98;97992.06;5009291;28;20501;-84
2022/07/23 01:10:30;;;;;;;4.63;4.22;;;;;;;22.88;56.82;98002.38;5028957;28;20044;-83
2022/07/23 01:12:53;;;;;;;5.55;5.05;;;;;;;22.79;55.80;97984.50;5022795;28;20045;-83
2022/07/23 01:15:19;;;;;;;5.10;4.70;;;;;;;22.85;56.25;98010.13;5025082;28;20477;-83
2022/07/23 01:17:46;;;;;;;5.20;4.80;;;;;;;22.91;55.69;98017.03;5023425;28;20041;-84
2022/07/23 01:20:13;;;;;;;4.60;4.20;;;;;;;22.95;56.43;98013.53;5038247;28;20046;-84
2022/07/23 01:22:40;;;;;;;5.18;4.68;;;;;;;23.02;56.36;98015.88;5025402;28;20038;-83
2022/07/23 01:25:07;;;;;;;5.38;4.90;;;;;;;22.95;55.92;97986.00;5021100;28;20108;-84
2022/07/23 01:27:34;;;;;;;4.97;4.53;;;;;;;23.09;55.06;98016.38;5021642;28;20124;-83
2022/07/23 01:30:03;;;;;;;5.03;4.53;;;;;;;22.94;55.25;98005.81;5017971;28;20068;-84
2022/07/23 01:32:30;;;;;;;4.80;4.40;;;;;;;22.98;56.53;98012.19;5022475;28;20041;-84
2022/07/23 01:34:58;;;;;;;5.43;4.93;;;;;;;22.98;56.64;98000.69;5026421;28;20038;-85
2022/07/23 01:37:24;;;;;;;5.30;4.80;;;;;;;23.04;56.48;98000.38;5023289;28;20045;-84
2022/07/23 01:39:51;;;;;;;4.70;4.30;;;;;;;23.03;55.90;98001.44;5036358;28;20046;-84
2022/07/23 01:42:18;;;;;;;5.28;4.80;;;;;;;23.02;55.82;97996.38;5025280;28;20041;-84
2022/07/23 01:44:46;;;;;;;5.63;5.07;;;;;;;23.03;56.49;98014.81;5027167;28;20065;-86
2022/07/23 01:47:13;;;;;;;5.43;4.93;;;;;;;22.99;57.05;98002.28;5026781;28;20498;-88
2022/07/23 01:49:40;;;;;;;4.93;4.53;;;;;;;22.86;56.14;98004.50;5016544;28;20488;-83
2022/07/23 01:52:10;;;;;;;5.35;4.90;;;;;;;22.85;56.97;98018.13;5005856;28;20403;-84
2022/07/23 01:54:39;;;;;;;5.55;5.00;;;;;;;22.94;58.08;98022.66;5039178;28;20034;-88
2022/07/23 01:57:07;;;;;;;5.47;4.97;;;;;;;22.91;57.62;98033.09;5023699;28;20440;-83
2022/07/23 01:59:35;;;;;;;5.85;5.35;;;;;;;22.85;58.06;98020.81;5024701;28;20048;-85
2022/07/23 02:02:03;;;;;;;5.80;5.30;;;;;;;22.71;58.55;98013.44;5026657;28;20103;-89
2022/07/23 02:04:30;;;;;;;6.28;4.50;;;;;;;22.78;58.75;98034.50;5010891;28;20136;-89
2022/07/23 02:06:57;;;;;;;5.78;5.22;;;;;;;22.78;58.65;98053.22;5025672;28;20418;-88
2022/07/23 02:09:24;;;;;;;5.15;4.75;;;;;;;22.76;59.20;98068.75;5023966;28;20070;-83
2022/07/23 02:11:51;;;;;;;5.60;5.00;;;;;;;22.68;58.82;98056.00;5021032;28;20041;-84
2022/07/23 02:14:17;;;;;;;5.40;4.90;;;;;;;22.67;59.99;98049.84;5022238;28;20076;-87
2022/07/23 02:16:44;;;;;;;5.70;5.20;;;;;;;22.61;59.48;98045.63;5023541;28;20038;-86
2022/07/23 02:19:11;;;;;;;5.65;5.07;;;;;;;22.62;59.96;98049.88;5020775;28;20038;-86
2022/07/23 02:21:38;;;;;;;5.60;5.10;;;;;;;22.54;60.01;98036.31;5020674;28;20068;-87
2022/07/23 02:24:05;;;;;;;6.43;5.78;;;;;;;22.48;59.67;98048.91;5010113;28;20100;-87
2022/07/23 02:26:34;;;;;;;5.90;5.40;;;;;;;22.44;60.35;98050.56;5023397;28;20045;-86
2022/07/23 02:29:03;;;;;;;5.70;5.20;;;;;;;22.39;60.58;98011.31;5024399;28;20475;-85
2022/07/23 02:31:31;;;;;;;5.20;4.70;;;;;;;22.48;60.63;98019.50;5012273;28;20038;-87
2022/07/23 02:33:59;;;;;;;5.82;5.32;;;;;;;22.42;60.53;98017.94;5021254;28;20095;-88
2022/07/23 02:36:26;;;;;;;5.90;5.40;;;;;;;22.46;60.29;98020.88;5021608;28;20050;-89
2022/07/23 02:38:53;;;;;;;5.38;4.93;;;;;;;22.34;60.31;97997.19;5008155;28;20046;-88
2022/07/23 02:41:20;;;;;;;6.93;6.32;;;;;;;22.33;60.33;98008.94;5021343;28;20497;-92
2022/07/23 02:43:47;;;;;;;6.70;5.93;;;;;;;22.30;60.62;98009.47;5022110;28;20481;-85
2022/07/23 02:46:13;;;;;;;6.18;5.68;;;;;;;22.22;60.96;98007.41;5023054;28;20099;-85
2022/07/23 02:48:40;;;;;;;5.80;5.30;;;;;;;22.27;60.84;98002.03;5022756;28;20091;-87
2022/07/23 02:51:07;;;;;;;5.78;5.28;;;;;;;22.17;61.45;97993.00;5023614;28;20067;-88
2022/07/23 02:53:40;;;;;;;6.40;5.80;;;;;;;22.18;61.31;97999.94;5025051;28;20081;-89
2022/07/23 02:56:07;;;;;;;6.53;6.03;;;;;;;22.13;61.45;97997.31;5022226;28;20048;-87
2022/07/23 02:58:34;;;;;;;6.65;5.93;;;;;;;22.08;61.62;98004.53;5022533;28;20096;-84
2022/07/23 03:01:01;;;;;;;6.82;6.20;;;;;;;22.01;62.03;97978.13;5024726;28;20083;-86
2022/07/23 03:03:27;;;;;;;5.70;5.20;;;;;;;21.98;62.06;97976.00;5024542;28;20132;-88
2022/07/23 03:05:56;;;;;;;7.10;6.43;;;;;;;21.99;62.12;97984.81;5013422;28;20045;-84
2022/07/23 03:08:23;;;;;;;7.18;6.47;;;;;;;21.86;62.46;97988.88;5025420;28;20041;-90
2022/07/23 03:10:50;;;;;;;6.68;6.07;;;;;;;21.89;63.18;97988.31;5005747;28;20128;-88
2022/07/23 03:13:16;;;;;;;6.30;5.70;;;;;;;21.89;63.37;97991.00;5020437;28;20046;-87
2022/07/23 03:15:43;;;;;;;6.25;5.75;;;;;;;21.90;63.05;97984.59;5024706;28;20046;-86
2022/07/23 03:18:10;;;;;;;6.03;5.50;;;;;;;21.77;63.45;97977.19;5004296;28;20096;-89
2022/07/23 03:20:37;;;;;;;6.00;5.40;;;;;;;21.90;63.35;98003.28;5019897;28;20049;-84
2022/07/23 03:23:04;;;;;;;7.03;6.40;;;;;;;21.76;63.00;97978.25;5022490;28;20046;-88
2022/07/23 03:25:30;;;;;;;6.75;6.05;;;;;;;21.71;63.65;97994.28;5009335;28;20038;-87
2022/07/23 03:27:57;;;;;;;6.70;6.10;;;;;;;21.62;63.77;97986.88;5040147;28;20037;-88
2022/07/23 03:30:24;;;;;;;7.30;6.68;;;;;;;21.62;63.99;98002.88;5023804;28;20042;-85
2022/07/23 03:32:50;;;;;;;6.65;6.05;;;;;;;21.66;64.67;98018.34;5021990;28;20037;-87
2022/07/23 03:35:17;;;;;;;6.55;5.95;;;;;;;21.52;64.80;98007.44;5037690;28;20382;-87
2022/07/23 03:37:44;;;;;;;8.18;6.78;;;;;;;21.39;64.65;97992.81;5023255;28;20080;-87
2022/07/23 03:40:12;;;;;;;6.78;6.18;;;;;;;21.41;65.25;98011.22;5024506;28;20049;-85
2022/07/23 03:42:41;;;;;;;7.40;6.70;;;;;;;21.33;65.84;98004.56;5022801;28;20050;-87
2022/07/23 03:45:08;;;;;;;7.53;6.78;;;;;;;21.25;65.87;97997.09;5022210;28;20041;-89
2022/07/23 03:47:35;;;;;;;7.70;7.00;;;;;;;21.19;66.16;98009.66;5006951;28;20041;-90
2022/07/23 03:50:03;;;;;;;6.22;5.63;;;;;;;21.20;66.97;98013.13;5025407;28;20041;-87
2022/07/23 03:52:30;;;;;;;6.70;6.10;;;;;;;21.12;66.68;97998.47;5027627;28;20100;-88
2022/07/23 03:54:57;;;;;;;6.60;6.00;;;;;;;21.18;66.65;98012.59;5025523;28;20045;-89
2022/07/23 03:57:23;;;;;;;7.05;6.35;;;;;;;21.15;66.59;98013.13;5030626;28;20073;-85
2022/07/23 03:59:50;;;;;;;6.80;6.20;;;;;;;21.04;67.10;98007.81;5028580;28;20046;-88
2022/07/23 04:02:17;;;;;;;7.43;6.72;;;;;;;21.02;66.76;98009.16;5004150;28;20046;-89
2022/07/23 04:04:43;;;;;;;8.05;7.18;;;;;;;21.06;66.76;98024.34;5027628;28;20503;-86
2022/07/23 04:07:10;;;;;;;6.90;6.30;;;;;;;20.97;66.86;98020.63;5027259;28;21002;-85
2022/07/23 04:09:37;;;;;;;7.22;6.60;;;;;;;20.92;66.94;98020.63;5024745;28;20120;-89
2022/07/23 04:12:04;;;;;;;7.63;6.93;;;;;;;20.83;66.82;98000.91;5018499;28;20042;-85
2022/07/23 04:14:31;;;;;;;6.28;5.63;;;;;;;20.94;67.64;98010.50;5026493;28;20048;-91
2022/07/23 04:16:58;;;;;;;8.18;7.38;;;;;;;20.88;66.39;98008.91;5023526;28;20410;-86
2022/07/23 04:19:26;;;;;;;7.90;7.20;;;;;;;21.07;66.05;98030.47;5028382;28;20042;-87
2022/07/23 04:21:53;;;;;;;7.28;6.30;;;;;;;21.03;66.36;98019.53;5026555;28;20038;-86
2022/07/23 04:24:19;;;;;;;7.47;6.78;;;;;;;21.09;66.27;98031.00;5029591;28;20049;-90
2022/07/23 04:26:46;;;;;;;8.48;7.70;;;;;;;20.93;66.07;98016.91;5025926;28;20092;-90
2022/07/23 04:29:13;;;;;;;7.18;6.57;;;;;;;21.11;66.08;98043.00;5025334;28;20041;-86
2022/07/23 04:31:40;;;;;;;7.88;7.05;;;;;;;21.11;65.97;98044.84;5028758;28;20053;-88
2022/07/23 04:34:07;;;;;;;7.72;7.03;;;;;;;21.11;66.09;98035.00;5028868;28;20404;-90
2022/07/23 04:36:33;;;;;;;6.55;5.93;;;;;;;21.17;65.80;98033.13;5028553;28;20045;-86
2022/07/23 04:39:00;;;;;;;6.68;6.07;;;;;;;21.23;65.38;98039.22;5022479;28;20038;-87
2022/07/23 04:41:27;;;;;;;6.68;6.05;;;;;;;21.35;65.28;98047.78;5027937;28;20053;-86
2022/07/23 04:43:55;;;;;;;7.68;6.88;;;;;;;21.30;64.75;98042.47;5023208;28;20505;-86
2022/07/23 04:46:22;;;;;;;6.75;6.15;;;;;;;21.42;64.75;98039.50;5024536;28;20115;-85
2022/07/23 04:48:48;;;;;;;7.90;7.20;;;;;;;21.48;64.06;98041.91;5028021;28;20099;-86
2022/07/23 04:51:15;;;;;;;7.70;6.90;;;;;;;21.47;64.73;98042.13;5019240;28;20390;-85
2022/07/23 04:53:42;;;;;;;7.03;6.32;;;;;;;21.54;64.49;98045.34;5020632;28;20062;-87
2022/07/23 04:56:09;;;;;;;7.40;6.70;;;;;;;21.56;65.07;98041.31;5020185;28;20041;-88
2022/07/23 04:58:36;;;;;;;7.25;6.55;;;;;;;21.55;64.22;98038.94;5027716;28;20047;-89
2022/07/23 05:01:02;;;;;;;7.35;6.63;;;;;;;21.62;64.58;98044.78;5025088;28;20041;-90
2022/07/23 05:03:30;;;;;;;6.50;5.90;;;;;;;21.59;65.42;98043.47;5025394;28;20041;-86
2022/07/23 05:05:57;;;;;;;6.95;6.35;;;;;;;21.57;64.54;98032.25;5024400;28;20516;-88
2022/07/23 05:08:23;;;;;;;6.30;5.70;;;;;;;21.55;64.62;98022.94;5024821;28;20052;-87
2022/07/23 05:10:50;;;;;;;6.75;6.05;;;;;;;21.58;63.93;98028.50;5025398;28;20500;-87
2022/07/23 05:13:18;;;;;;;7.38;6.70;;;;;;;21.68;64.64;98042.88;5025667;28;20045;-87
2022/07/23 05:15:46;;;;;;;6.45;5.95;;;;;;;21.80;64.34;98054.84;5005244;28;20044;-89
2022/07/23 05:18:13;;;;;;;6.68;6.07;;;;;;;21.92;63.32;98050.00;5022667;28;20516;-86
2022/07/23 05:20:40;;;;;;;6.63;6.03;;;;;;;21.93;62.37;98053.47;5023745;28;20053;-85
2022/07/23 05:23:07;;;;;;;6.63;6.03;;;;;;;22.02;63.55;98065.19;5023161;28;20053;-85
2022/07/23 05:25:34;;;;;;;6.43;5.93;;;;;;;21.96;62.91;98058.28;5023882;28;20486;-87
2022/07/23 05:28:00;;;;;;;5.53;5.13;;;;;;;22.06;64.58;98074.22;5022582;28;20049;-88
2022/07/23 05:30:28;;;;;;;5.15;4.75;;;;;;;22.17;63.87;98089.16;5006969;28;20135;-86
2022/07/23 05:32:54;;;;;;;6.15;5.57;;;;;;;22.08;63.50;98063.28;5026173;28;20041;-86
2022/07/23 05:35:21;;;;;;;5.32;4.93;;;;;;;22.28;64.75;98081.91;5026707;28;20375;-87
2022/07/23 05:37:48;;;;;;;5.95;5.45;;;;;;;22.40;63.20;98081.56;5010957;28;20041;-84
2022/07/23 05:40:16;;;;;;;7.10;6.50;;;;;;;22.54;62.10;98071.03;5025504;28;20045;-88
2022/07/23 05:42:42;;;;;;;6.00;5.50;;;;;;;22.80;62.22;98064.47;5024731;28;20038;-87
2022/07/23 05:45:10;;;;;;;5.78;5.28;;;;;;;23.12;61.36;98069.28;5026794;28;20073;-88
2022/07/23 05:47:47;;;;;;;5.72;5.22;;;;;;;23.26;60.86;98071.31;5042419;28;20475;-85
2022/07/23 05:50:15;;;;;;;5.20;4.70;;;;;;;23.38;59.77;98066.38;5025121;28;20418;-88
2022/07/23 05:52:43;;;;;;;5.50;5.07;;;;;;;23.30;60.22;98067.78;5025831;28;20115;-88
2022/07/23 05:55:12;;;;;;;5.85;5.35;;;;;;;23.32;59.85;98086.22;5020218;28;20460;-88
2022/07/23 05:57:40;;;;;;;5.45;5.05;;;;;;;23.37;59.59;98099.56;5027310;28;20208;-87
2022/07/23 06:00:10;;;;;;;4.95;4.55;;;;;;;23.45;60.67;98101.63;5021831;28;20050;-88
2022/07/23 06:02:38;;;;;;;5.43;4.93;;;;;;;23.51;60.26;98095.16;5024578;28;20053;-87
2022/07/23 06:05:07;;;;;;;4.85;4.45;;;;;;;23.72;60.60;98103.78;5020183;28;20038;-87
2022/07/23 06:07:35;;;;;;;4.43;4.03;;;;;;;23.86;61.59;98115.41;5021479;28;20133;-87
2022/07/23 06:10:01;;;;;;;5.30;4.85;;;;;;;23.83;57.61;98104.47;5021807;28;20429;-87
2022/07/23 06:12:28;;;;;;;4.53;4.13;;;;;;;23.80;60.28;98095.13;5020373;28;20064;-87
2022/07/23 06:14:55;;;;;;;3.63;3.33;;;;;;;24.02;59.09;98124.88;5022253;28;20038;-89
2022/07/23 06:17:22;;;;;;;4.10;3.70;;;;;;;24.10;58.15;98128.78;5016327;28;20038;-88
2022/07/23 06:19:51;;;;;;;4.05;3.75;;;;;;;24.00;59.03;98115.53;5021232;28;20045;-88
2022/07/23 06:22:18;;;;;;;4.10;3.80;;;;;;;24.09;58.17;98127.19;5023982;28;20092;-87
2022/07/23 06:24:45;;;;;;;3.58;3.30;;;;;;;24.10;59.08;98118.06;5026583;28;20201;-87
2022/07/23 06:27:11;;;;;;;3.55;3.08;;;;;;;24.34;58.90;98127.94;5019980;28;20077;-87
2022/07/23 06:29:40;;;;;;;5.28;4.72;;;;;;;24.41;55.25;98118.53;5017287;28;20463;-86
2022/07/23 06:32:08;;;;;;;4.72;4.22;;;;;;;24.63;55.39;98125.97;5019589;28;20049;-85
2022/07/23 06:34:35;;;;;;;3.97;3.58;;;;;;;24.81;53.66;98133.22;5022614;28;20252;-88
2022/07/23 06:37:02;;;;;;;5.00;4.55;;;;;;;24.92;54.08;98122.34;5008847;28;20046;-86
2022/07/23 06:39:29;;;;;;;5.40;4.90;;;;;;;24.87;53.14;98123.22;5015888;28;20068;-86
2022/07/23 06:41:55;;;;;;;4.32;3.92;;;;;;;25.13;53.06;98133.56;5025900;28;20048;-87
2022/07/23 06:44:26;;;;;;;;;;;;;;;25.28;55.68;98131.44;5009112;28;20506;-86
2022/07/23 06:46:53;;;;;;;4.43;4.13;;;;;;;25.46;54.79;98134.34;5036924;28;20327;-88
2022/07/23 06:49:20;;;;;;;4.95;4.50;;;;;;;25.52;53.18;98141.22;5022825;28;20041;-86
2022/07/23 06:51:47;;;;;;;5.05;4.65;;;;;;;25.41;53.39;98137.13;5010787;28;20116;-84
2022/07/23 06:54:13;;;;;;;6.18;5.63;;;;;;;25.34;51.19;98154.41;5027215;28;20049;-88
2022/07/23 06:56:40;;;;;;;6.00;5.50;;;;;;;25.21;52.37;98163.22;5026211;28;20083;-90
2022/07/23 06:59:07;;;;;;;6.30;5.70;;;;;;;25.02;52.19;98147.13;5018209;28;20077;-88
2022/07/23 07:01:34;;;;;;;5.88;5.43;;;;;;;24.95;53.13;98157.44;5022475;28;20096;-89
2022/07/23 07:04:01;;;;;;;6.18;5.68;;;;;;;24.89;52.58;98160.47;5040400;28;20565;-89
2022/07/23 07:06:27;;;;;;;6.50;5.90;;;;;;;24.88;52.61;98164.25;5027110;28;20041;-88
2022/07/23 07:08:55;;;;;;;6.30;5.80;;;;;;;24.81;52.22;98165.41;5015921;28;20049;-89
2022/07/23 07:11:23;;;;;;;5.85;5.25;;;;;;;24.91;52.66;98169.84;5022143;28;20524;-87
2022/07/23 07:13:50;;;;;;;6.22;5.63;;;;;;;25.00;52.25;98175.31;5032386;28;20045;-85
2022/07/23 07:16:17;;;;;;;5.25;4.85;;;;;;;25.27;52.34;98164.75;5016178;28;20393;-89
2022/07/23 07:18:43;;;;;;;5.65;5.15;;;;;;;25.42;51.86;98173.63;5011521;28;20056;-88
2022/07/23 07:21:10;;;;;;;5.72;5.22;;;;;;;25.46;51.46;98180.78;5003033;28;20048;-86
2022/07/23 07:23:37;;;;;;;6.40;5.90;;;;;;;25.30;51.88;98182.94;5012508;28;20539;-83
2022/07/23 07:26:04;;;;;;;6.00;5.50;;;;;;;25.40;52.02;98183.88;5012488;28;20104;-87
2022/07/23 07:28:30;;;;;;;5.43;4.93;;;;;;;25.42;52.90;98185.16;5010264;28;20053;-89
2022/07/23 07:30:57;;;;;;;6.10;5.60;;;;;;;25.34;51.94;98189.31;4994467;28;20079;-86
2022/07/23 07:33:24;;;;;;;7.85;7.03;;;;;;;25.12;52.53;98207.09;5025850;28;20050;-86
2022/07/23 07:35:51;;;;;;;6.63;6.05;;;;;;;24.99;52.96;98201.34;5007820;28;20092;-83
2022/07/23 07:38:17;;;;;;;7.10;6.60;;;;;;;24.83;52.51;98208.06;5026350;28;20049;-90
2022/07/23 07:40:44;;;;;;;6.13;5.53;;;;;;;24.72;53.13;98204.69;5028241;28;20041;-92
2022/07/23 07:43:11;;;;;;;7.10;6.50;;;;;;;24.61;53.22;98219.31;5017395;28;20042;-87
2022/07/23 07:45:38;;;;;;;7.38;6.72;;;;;;;24.26;53.81;98242.75;5004156;28;20064;-86
2022/07/23 07:48:05;;;;;;;7.22;6.50;;;;;;;23.84;54.86;98250.69;5020933;28;20049;-89
2022/07/23 07:50:32;;;;;;;6.38;5.78;;;;;;;22.29;72.03;98251.00;5011282;28;20068;-90
2022/07/23 07:53:01;;;;;;;6.07;5.57;;;;;;;21.15;79.74;98264.59;5005952;28;20050;-88
2022/07/23 07:55:28;;;;;;;5.30;4.90;;;;;;;20.71;78.46;98258.88;5018563;28;20054;-88
2022/07/23 07:57:57;;;;;;;5.05;4.57;;;;;;;20.65;78.14;98235.94;5010578;28;20514;-89
2022/07/23 08:00:24;;;;;;;5.72;5.10;;;;;;;20.58;80.49;98244.97;5023805;28;20045;-88
2022/07/23 08:02:54;;;;;;;4.90;4.50;;;;;;;20.64;78.00;98258.34;5027460;28;20409;-88
2022/07/23 08:05:29;;;;;;;5.43;4.35;;;;;;;20.64;81.78;98245.81;5022210;28;20128;-89
2022/07/23 08:07:58;;;;;;;5.05;4.03;;;;;;;20.64;82.19;98242.34;5021920;28;20505;-88
2022/07/23 08:10:27;;;;;;;4.35;3.95;;;;;;;20.78;80.72;98260.25;5005132;28;20060;-87
2022/07/23 08:12:56;;;;;;;4.70;4.30;;;;;;;20.71;79.89;98256.22;5005229;28;20045;-88
2022/07/23 08:15:27;;;;;;;4.35;4.00;;;;;;;20.81;80.18;98261.56;5021328;28;20046;-88
2022/07/23 08:17:54;;;;;;;5.05;4.65;;;;;;;20.83;81.39;98246.13;5015325;28;20045;-88
2022/07/23 08:20:24;;;;;;;6.38;5.78;;;;;;;20.73;76.08;98262.09;5021392;28;20044;-89
2022/07/23 08:22:57;;;;;;;5.22;4.72;;;;;;;20.71;80.10;98282.88;5035218;28;20037;-88
2022/07/23 08:25:38;;;;;;;5.50;5.00;;;;;;;20.60;79.16;98254.56;5023204;28;20045;-88
2022/07/23 08:28:08;;;;;;;4.95;4.55;;;;;;;20.66;82.54;98264.19;5017934;28;20052;-88
2022/07/23 08:30:38;;;;;;;4.35;3.95;;;;;;;20.69;80.74;98255.66;5024450;28;20041;-87
2022/07/23 08:33:16;;;;;;;4.38;3.97;;;;;;;20.57;82.58;98239.88;5018268;28;20515;-87
2022/07/23 08:36:02;;;;;;;3.30;3.00;;;;;;;20.83;83.47;98246.94;5023372;28;20416;-86
2022/07/23 08:38:29;;;;;;;3.38;3.08;;;;;;;20.96;81.22;98242.16;5027355;28;20061;-87
2022/07/23 08:40:57;;;;;;;4.10;3.67;;;;;;;21.13;81.15;98241.94;5024512;28;20065;-86
2022/07/23 08:43:29;;;;;;;5.13;4.63;;;;;;;21.03;79.58;98240.84;5022959;28;20041;-86
2022/07/23 08:45:59;;;;;;;5.30;4.90;;;;;;;20.93;77.50;98240.84;5024216;28;20133;-86
2022/07/23 08:48:34;;;;;;;4.70;4.30;;;;;;;21.00;79.03;98256.59;5025004;28;20038;-87
2022/07/23 08:51:05;;;;;;;4.13;3.83;;;;;;;21.30;80.30;98266.53;5021444;28;20468;-88
2022/07/23 08:53:35;;;;;;;4.10;3.75;;;;;;;21.57;80.24;98268.94;5023747;28;20065;-87
2022/07/23 08:56:03;;;;;;;4.03;3.63;;;;;;;21.93;82.13;98275.06;5020652;28;20080;-87
2022/07/23 08:58:31;;;;;;;4.05;3.40;;;;;;;22.22;78.55;98287.91;5022539;28;20091;-90
2022/07/23 09:01:00;;;;;;;4.25;3.85;;;;;;;22.38;78.52;98281.44;5018503;28;20046;-88
2022/07/23 09:03:32;;;;;;;3.40;3.10;;;;;;;22.50;79.70;98278.47;5026283;28;20033;-91
2022/07/23 09:06:01;;;;;;;4.78;4.38;;;;;;;22.47;77.16;98287.81;5027131;28;20501;-89
2022/07/23 09:08:43;;;;;;;4.35;3.95;;;;;;;22.51;77.93;98286.22;5022405;28;20136;-91
2022/07/23 09:11:18;;;;;;;3.90;3.60;;;;;;;22.75;79.37;98315.00;5014460;28;20133;-92
2022/07/23 09:13:48;;;;;;;3.85;3.55;;;;;;;22.87;80.04;98305.63;5003416;28;20044;-91
2022/07/23 09:16:18;;;;;;;3.78;3.47;;;;;;;23.28;78.35;98324.16;5024974;28;20045;-93
2022/07/23 09:18:53;;;;;;;4.18;3.78;;;;;;;23.49;76.56;98330.16;5022471;28;20049;-92
2022/07/23 09:21:28;;;;;;;3.92;3.63;;;;;;;23.56;73.72;98333.34;5012653;28;20060;-90
2022/07/23 09:24:03;;;;;;;5.07;4.53;;;;;;;23.50;68.88;98313.03;5030116;28;20468;-91
2022/07/23 09:26:34;;;;;;;4.80;4.30;;;;;;;23.65;71.88;98326.34;5027213;28;20045;-89
2022/07/23 09:29:04;;;;;;;4.78;4.38;;;;;;;23.84;72.80;98328.34;5028857;28;20065;-89
2022/07/23 09:31:42;;;;;;;5.57;5.00;;;;;;;23.90;71.64;98328.03;5024862;28;20060;-92
2022/07/23 09:34:21;;;;;;;5.43;4.93;;;;;;;24.19;71.10;98321.91;5024116;28;20113;-89
2022/07/23 09:36:56;;;;;;;5.15;4.75;;;;;;;24.32;70.00;98331.16;5014328;28;20053;-90
2022/07/23 09:39:33;;;;;;;8.07;7.28;;;;;;;23.65;68.41;98320.19;5028900;28;20037;-87
2022/07/23 09:42:26;;;;;;;6.95;6.35;;;;;;;23.39;69.50;98317.66;5041397;28;20449;-88
2022/07/23 09:45:13;;;;;;;6.57;5.97;;;;;;;23.33;68.39;98321.47;5032503;28;20077;-90
2022/07/23 09:48:14;;;;;;;5.95;5.47;;;;;;;23.21;73.72;98303.06;5038935;28;20071;-89
2022/07/23 09:50:44;;;;;;;5.10;4.60;;;;;;;23.53;69.84;98317.84;5016081;28;20141;-87
2022/07/23 09:53:30;;;;;;;5.50;5.00;;;;;;;23.60;72.20;98315.66;5030259;28;20048;-90
2022/07/23 09:56:00;;;;;;;6.55;5.95;;;;;;;23.56;69.04;98301.22;5030337;28;20037;-90
2022/07/23 09:58:30;;;;;;;6.50;5.93;;;;;;;23.81;70.90;98315.50;5038198;28;20464;-89
2022/07/23 10:00:58;;;;;;;5.68;5.13;;;;;;;24.09;72.27;98325.44;5005932;28;20045;-89
2022/07/23 10:03:26;;;;;;;7.13;6.53;;;;;;;23.88;68.16;98334.75;5030007;28;20033;-89
2022/07/23 10:05:54;;;;;;;6.20;5.70;;;;;;;23.54;69.48;98318.63;5027727;28;20401;-89
2022/07/23 10:08:22;;;;;;;6.53;5.93;;;;;;;23.60;72.78;98328.22;5030161;28;20046;-87
2022/07/23 10:10:51;;;;;;;6.93;6.32;;;;;;;23.44;65.63;98327.53;5026818;28;20413;-91
2022/07/23 10:16:04;;;;;;;5.65;5.15;;;;;;;23.64;70.89;98329.31;5025752;28;20042;-91
2022/07/23 10:18:31;;;;;;;6.13;5.63;;;;;;;23.67;71.96;98326.88;5023540;28;20124;-89
2022/07/23 10:21:02;;;;;;;5.95;5.45;;;;;;;23.71;70.91;98319.88;5023457;28;20049;-88
2022/07/23 10:23:45;;;;;;;6.32;5.72;;;;;;;23.71;69.68;98332.47;5030800;28;20617;-90
2022/07/23 10:27:04;;;;;;;6.20;5.70;;;;;;;23.39;71.10;98333.72;5023275;28;20054;-90
2022/07/23 10:29:58;;;;;;;5.63;5.13;;;;;;;23.41;71.83;98328.09;5019249;28;20052;-89
2022/07/23 10:32:43;;;;;;;5.18;4.78;;;;;;;23.59;70.73;98327.44;5025996;28;20041;-88
2022/07/23 10:35:22;;;;;;;5.63;5.13;;;;;;;23.64;71.65;98318.59;5028725;28;20068;-89
2022/07/23 10:37:56;;;;;;;4.75;4.30;;;;;;;23.82;73.71;98319.81;5034865;28;20045;-90
2022/07/23 10:40:23;;;;;;;5.20;4.80;;;;;;;23.89;72.32;98298.84;5026344;28;20481;-91
2022/07/23 10:42:52;;;;;;;5.53;5.05;;;;;;;24.09;71.06;98304.03;5013868;28;20056;-87
2022/07/23 10:45:35;;;;;;;4.25;3.95;;;;;;;24.36;72.73;98305.41;5026125;28;20072;-90
2022/07/23 10:48:18;;;;;;;4.75;4.15;;;;;;;24.45;70.49;98285.72;5041326;28;20045;-89
2022/07/23 10:51:08;;;;;;;4.60;4.20;;;;;;;24.49;71.38;98283.28;5017935;28;20068;-90
2022/07/23 10:54:21;;;;;;;5.03;4.45;;;;;;;24.37;70.12;98277.53;5007287;28;20054;-91
2022/07/23 10:57:09;;;;;;;4.30;4.00;;;;;;;24.50;69.80;98287.56;5019081;28;20489;-90
2022/07/23 11:00:14;;;;;;;4.93;4.45;;;;;;;24.56;70.92;98302.50;5023123;28;20042;-88
2022/07/23 11:02:45;;;;;;;4.72;4.32;;;;;;;24.62;69.52;98295.19;5025571;28;20056;-89
2022/07/23 11:05:39;;;;;;;4.60;4.20;;;;;;;24.65;68.80;98295.44;5022663;28;20128;-90
2022/07/23 11:08:11;;;;;;;5.38;4.88;;;;;;;24.65;70.23;98299.97;5037964;28;20489;-89
2022/07/23 11:11:03;;;;;;;4.88;4.28;;;;;;;24.51;69.10;98286.47;5019548;28;20116;-92
2022/07/23 11:13:38;;;;;;;6.15;4.95;;;;;;;24.55;70.17;98292.88;5040188;28;20050;-92
2022/07/23 11:16:08;;;;;;;6.95;6.28;;;;;;;24.25;67.93;98302.81;5026349;28;20046;-90
2022/07/23 11:18:44;;;;;;;7.57;6.60;;;;;;;23.96;69.23;98305.47;5005890;28;20414;-90
2022/07/23 11:21:21;;;;;;;4.80;4.40;;;;;;;24.18;70.93;98305.03;5012959;28;20588;-89
2022/07/23 11:23:59;;;;;;;5.25;4.85;;;;;;;24.26;72.23;98304.41;5027579;28;20045;-92
2022/07/23 11:26:46;;;;;;;6.40;5.78;;;;;;;23.96;66.75;98308.16;5005075;28;20042;-88
2022/07/23 11:29:26;;;;;;;5.78;5.25;;;;;;;23.88;69.88;98305.28;5024779;28;20046;-93
2022/07/23 11:32:00;;;;;;;5.87;5.30;;;;;;;24.09;68.54;98303.22;5034789;28;20420;-88
2022/07/23 11:34:36;;;;;;;5.00;4.55;;;;;;;24.25;67.48;98302.81;5016657;28;20297;-89
2022/07/23 11:37:09;;;;;;;5.28;4.88;;;;;;;24.32;67.11;98293.63;5031715;28;20041;-90
2022/07/23 11:39:38;;;;;;;5.05;4.47;;;;;;;24.35;68.17;98290.38;5025224;28;20052;-90
2022/07/23 11:42:07;;;;;;;5.65;4.80;;;;;;;24.47;68.08;98282.75;5023102;28;20038;-89
2022/07/23 11:44:39;;;;;;;5.10;4.70;;;;;;;24.64;66.79;98288.44;5022007;28;20026;-88
2022/07/23 11:47:09;;;;;;;5.40;4.60;;;;;;;24.62;66.14;98273.75;5018117;28;20059;-89
2022/07/23 11:49:36;;;;;;;5.68;5.18;;;;;;;24.44;64.33;98288.69;5021845;28;20049;-89